Time;durP1;ratioP1;P1;durP2;ratioP2;P2;SDS_P1;SDS_P2;PMS_P1;PMS_P2;Temp;Humidity;BMP_temperature;BMP_pressure;BME280_temperature;BME280_humidity;BME280_pressure;Samples;Min_cycle;Max_cycle;Signal;HPM_P1;HPM_P2
2021/12/14 00:00:52;;;;;;;17.38;12.40;;;8.10;99.90;;;;;;5054841;28;20076;-71
2021/12/14 00:03:25;;;;;;;14.38;11.95;;;8.10;99.90;;;;;;5072729;28;20048;-72
2021/12/14 00:05:52;;;;;;;18.17;12.30;;;8.10;99.90;;;;;;5071469;28;20052;-72
2021/12/14 00:08:20;;;;;;;17.90;13.07;;;8.10;99.90;;;;;;5071330;28;20511;-72
2021/12/14 00:13:51;;;;;;;19.13;12.82;;;8.10;99.90;;;;;;5071347;28;20080;-72
2021/12/14 00:16:10;;;;;;;16.42;12.90;;;8.10;99.90;;;;;;5070792;28;20044;-72
2021/12/14 00:18:37;;;;;;;22.73;13.40;;;8.00;99.90;;;;;;5071268;28;20051;-72
2021/12/14 00:21:08;;;;;;;19.00;13.70;;;8.10;99.90;;;;;;5071393;28;20052;-72
2021/12/14 00:26:24;;;;;;;21.08;13.55;;;8.00;99.90;;;;;;5070515;28;20048;-72
2021/12/14 00:28:51;;;;;;;18.20;14.02;;;8.10;99.90;;;;;;5071435;28;20093;-72
2021/12/14 00:31:19;;;;;;;18.55;14.43;;;8.00;99.90;;;;;;5071022;28;20044;-72
2021/12/14 00:33:49;;;;;;;19.55;14.02;;;8.00;99.90;;;;;;5071856;28;20044;-72
2021/12/14 00:36:16;;;;;;;19.77;13.98;;;8.60;99.90;;;;;;5072140;28;20507;-73
2021/12/14 00:38:43;;;;;;;20.38;14.15;;;8.00;99.90;;;;;;5054108;28;20046;-72
2021/12/14 00:41:17;;;;;;;21.02;14.45;;;8.00;99.90;;;;;;5070840;28;20518;-71
2021/12/14 00:43:45;;;;;;;21.08;14.80;;;7.70;99.90;;;;;;5071887;28;20106;-71
2021/12/14 00:46:11;;;;;;;19.55;15.30;;;7.80;99.90;;;;;;5071864;28;20059;-71
2021/12/14 00:48:45;;;;;;;21.35;15.57;;;7.50;99.90;;;;;;5071531;28;20164;-72
2021/12/14 00:51:11;;;;;;;21.23;15.45;;;8.10;99.90;;;;;;5071946;28;20040;-72
2021/12/14 00:53:38;;;;;;;24.88;16.00;;;8.00;99.90;;;;;;5071564;28;20048;-72
2021/12/14 00:56:07;;;;;;;21.27;15.60;;;8.20;99.90;;;;;;5070671;28;20409;-72
2021/12/14 00:58:34;;;;;;;23.60;15.93;;;8.30;99.90;;;;;;5070246;28;20102;-72
2021/12/14 01:01:28;;;;;;;22.40;16.45;;;8.00;99.90;;;;;;5071804;28;20047;-72
2021/12/14 01:03:58;;;;;;;22.60;16.58;;;8.20;99.90;;;;;;5070742;28;20052;-73
2021/12/14 01:06:28;;;;;;;22.92;16.30;;;7.60;99.90;;;;;;5049016;28;20598;-72
2021/12/14 01:08:54;;;;;;;22.35;16.80;;;7.60;99.90;;;;;;5032709;28;21016;-73
2021/12/14 01:11:34;;;;;;;23.45;17.27;;;8.00;99.90;;;;;;5048966;28;20061;-73
2021/12/14 01:14:06;;;;;;;24.05;16.98;;;8.00;99.90;;;;;;5032295;28;20049;-73
2021/12/14 01:16:53;;;;;;;23.52;17.60;;;8.50;99.90;;;;;;5032636;28;20048;-73
2021/12/14 01:19:26;;;;;;;22.85;17.33;;;8.00;99.90;;;;;;5016066;28;20049;-72
2021/12/14 01:25:08;;;;;;;22.52;16.42;;;8.00;99.90;;;;;;5048825;28;20584;-73
2021/12/14 01:27:54;;;;;;;23.95;17.55;;;8.30;99.90;;;;;;5032293;28;20072;-73
2021/12/14 01:30:35;;;;;;;21.60;17.47;;;8.10;99.90;;;;;;5031787;28;20048;-72
2021/12/14 01:33:06;;;;;;;21.30;16.83;;;8.00;99.90;;;;;;5048594;28;20456;-73
2021/12/14 01:35:35;;;;;;;24.70;16.92;;;8.00;99.90;;;;;;5031758;28;20125;-73
2021/12/14 01:40:56;;;;;;;24.95;17.13;;;7.70;99.90;;;;;;5070943;28;20044;-73
2021/12/14 01:43:50;;;;;;;20.98;16.85;;;8.10;99.90;;;;;;5069677;28;20460;-72
2021/12/14 01:46:22;;;;;;;21.75;16.88;;;7.90;99.90;;;;;;5070654;28;20385;-72
2021/12/14 01:48:49;;;;;;;25.60;17.10;;;8.60;99.90;;;;;;5069008;28;20087;-73
2021/12/14 01:51:18;;;;;;;21.05;16.73;;;7.90;99.90;;;;;;5069461;28;20408;-73
2021/12/14 01:53:47;;;;;;;22.77;17.02;;;7.70;99.90;;;;;;5069169;28;20139;-73
2021/12/14 01:56:15;;;;;;;23.33;16.92;;;7.90;99.90;;;;;;5069198;28;20052;-73
2021/12/14 01:58:56;;;;;;;21.33;17.23;;;7.70;99.90;;;;;;5069429;28;20055;-73
2021/12/14 02:01:36;;;;;;;22.48;16.98;;;7.80;99.90;;;;;;5069527;28;20037;-73
2021/12/14 02:04:26;;;;;;;22.20;16.20;;;8.20;99.90;;;;;;5069377;28;20055;-73
2021/12/14 02:06:58;;;;;;;23.23;17.48;;;7.90;99.90;;;;;;5068928;28;20132;-73
2021/12/14 02:09:27;;;;;;;24.88;17.27;;;8.10;99.90;;;;;;5052481;28;20052;-73
2021/12/14 02:11:58;;;;;;;24.17;16.80;;;7.60;99.90;;;;;;5070590;28;20044;-73
2021/12/14 02:14:26;;;;;;;27.58;17.65;;;7.90;99.90;;;;;;5070375;28;20052;-73
2021/12/14 02:16:55;;;;;;;25.63;18.35;;;7.90;99.90;;;;;;5069069;28;20048;-73
2021/12/14 02:19:22;;;;;;;25.55;18.23;;;7.90;99.90;;;;;;5069045;28;20055;-73
2021/12/14 02:21:51;;;;;;;26.60;18.77;;;7.90;99.90;;;;;;5070307;28;20037;-73
2021/12/14 02:24:22;;;;;;;26.42;18.83;;;7.90;99.90;;;;;;5070657;28;20059;-73
2021/12/14 02:26:54;;;;;;;28.67;18.38;;;7.80;99.90;;;;;;5069298;28;20400;-73
2021/12/14 02:29:32;;;;;;;27.25;19.25;;;8.50;99.90;;;;;;5068973;28;20407;-73
2021/12/14 02:32:09;;;;;;;28.85;19.02;;;8.00;99.90;;;;;;5069536;28;20044;-73
2021/12/14 02:34:48;;;;;;;26.63;19.35;;;8.40;99.90;;;;;;5068920;28;20138;-73
2021/12/14 02:37:15;;;;;;;26.58;19.23;;;7.90;99.90;;;;;;5069087;28;20444;-73
2021/12/14 02:42:11;;;;;;;26.23;18.92;;;7.90;99.90;;;;;;5069021;28;20040;-73
2021/12/14 02:44:38;;;;;;;26.98;19.15;;;7.90;99.90;;;;;;5068935;28;20126;-73
2021/12/14 02:47:11;;;;;;;28.10;19.73;;;7.90;99.90;;;;;;5068517;28;20056;-73
2021/12/14 02:49:39;;;;;;;30.40;20.50;;;7.90;99.90;;;;;;5067273;28;20589;-73
2021/12/14 02:52:10;;;;;;;29.90;20.25;;;7.90;99.90;;;;;;5072572;28;20052;-73
2021/12/14 02:54:52;;;;;;;31.15;20.52;;;8.40;99.90;;;;;;5072718;28;20041;-72
2021/12/14 02:57:26;;;;;;;31.27;20.55;;;7.80;99.90;;;;;;5074190;28;20450;-73
2021/12/14 02:59:55;;;;;;;30.20;20.63;;;7.80;99.90;;;;;;5073160;28;20129;-73
2021/12/14 03:02:32;;;;;;;30.75;21.65;;;8.00;99.90;;;;;;5073140;28;20051;-73
2021/12/14 03:05:15;;;;;;;29.52;20.95;;;7.80;99.90;;;;;;5072982;28;20119;-73
2021/12/14 03:07:56;;;;;;;29.85;21.50;;;8.00;99.90;;;;;;5073116;28;20427;-73
2021/12/14 03:13:05;;;;;;;36.97;22.10;;;8.00;99.90;;;;;;5072159;28;20488;-73
2021/12/14 03:15:47;;;;;;;33.13;22.75;;;7.90;99.90;;;;;;5072525;28;20503;-73
2021/12/14 03:18:15;;;;;;;32.13;23.30;;;7.70;99.90;;;;;;5073797;28;20124;-73
2021/12/14 03:20:49;;;;;;;34.03;24.05;;;8.10;99.90;;;;;;5073736;28;20068;-73
2021/12/14 03:23:26;;;;;;;33.35;23.08;;;8.00;99.90;;;;;;5072737;28;20123;-73
2021/12/14 03:25:55;;;;;;;35.42;24.13;;;7.90;99.90;;;;;;5072118;28;20087;-73
2021/12/14 03:28:24;;;;;;;33.63;23.50;;;8.00;99.90;;;;;;5072207;28;20052;-73
2021/12/14 03:30:58;;;;;;;34.63;23.65;;;9.30;99.90;;;;;;5072301;28;20052;-73
2021/12/14 03:33:28;;;;;;;34.33;24.08;;;7.80;99.90;;;;;;5073207;28;20291;-73
2021/12/14 03:35:59;;;;;;;38.63;25.02;;;7.80;99.90;;;;;;5073333;28;20044;-73
2021/12/14 03:38:39;;;;;;;34.92;24.55;;;8.20;99.90;;;;;;5073095;28;20086;-73
2021/12/14 03:41:20;;;;;;;39.38;25.58;;;8.00;99.90;;;;;;5054893;28;20048;-73
2021/12/14 03:44:04;;;;;;;39.22;25.35;;;7.90;99.90;;;;;;5071710;28;20040;-73
2021/12/14 03:46:34;;;;;;;41.65;26.23;;;7.90;99.90;;;;;;5071722;28;20053;-73
2021/12/14 03:49:03;;;;;;;37.88;25.80;;;8.60;99.90;;;;;;5071393;28;20064;-72
2021/12/14 03:51:34;;;;;;;40.92;25.60;;;7.80;99.90;;;;;;5073136;28;20060;-72
2021/12/14 03:54:00;;;;;;;37.92;26.65;;;7.90;99.90;;;;;;5071641;28;20048;-72
2021/12/14 03:56:29;;;;;;;39.95;26.67;;;7.90;99.90;;;;;;5055049;28;20447;-73
2021/12/14 03:58:55;;;;;;;39.30;27.42;;;7.90;99.90;;;;;;5071635;28;20044;-73
2021/12/14 04:01:26;;;;;;;39.90;27.98;;;8.00;99.90;;;;;;5070132;28;20040;-73
2021/12/14 04:04:10;;;;;;;39.05;27.20;;;8.70;99.90;;;;;;5071675;28;20058;-73
2021/12/14 04:06:38;;;;;;;41.35;28.55;;;7.90;99.90;;;;;;5071740;28;20056;-73
2021/12/14 04:09:10;;;;;;;43.30;28.13;;;7.60;99.90;;;;;;5072983;28;20094;-73
2021/12/14 04:11:36;;;;;;;44.72;29.00;;;7.80;99.90;;;;;;5071217;28;20496;-73
2021/12/14 04:14:07;;;;;;;41.45;28.13;;;7.90;99.90;;;;;;5071070;28;20036;-73
2021/12/14 04:16:35;;;;;;;40.92;27.80;;;7.80;99.90;;;;;;5068910;28;20102;-73
2021/12/14 04:19:09;;;;;;;45.90;29.80;;;7.90;99.90;;;;;;5070934;28;20048;-73
2021/12/14 04:21:38;;;;;;;43.28;30.40;;;7.90;99.90;;;;;;5070941;28;20127;-73
2021/12/14 04:24:06;;;;;;;43.80;29.77;;;8.30;99.90;;;;;;5072378;28;20053;-73
2021/12/14 04:26:32;;;;;;;50.40;31.23;;;8.10;99.90;;;;;;5071268;28;20097;-73
2021/12/14 04:29:00;;;;;;;47.95;31.00;;;7.90;99.90;;;;;;5054525;28;20051;-73
2021/12/14 04:31:26;;;;;;;46.65;31.20;;;7.90;99.90;;;;;;5072163;28;20396;-73
2021/12/14 04:33:55;;;;;;;46.85;31.52;;;8.10;99.90;;;;;;5072155;28;20477;-73
2021/12/14 04:36:24;;;;;;;48.38;31.00;;;8.00;99.90;;;;;;5071320;28;20384;-73
2021/12/14 04:39:00;;;;;;;50.15;32.67;;;7.90;99.90;;;;;;5072184;28;20108;-73
2021/12/14 04:52:44;;;;;;;49.65;32.42;;;7.80;99.90;;;;;;5070586;28;20048;-73
2021/12/14 04:55:11;;;;;;;48.63;33.03;;;7.80;99.90;;;;;;5070942;28;20400;-73
2021/12/14 04:57:46;;;;;;;51.05;33.45;;;7.90;99.90;;;;;;5071661;28;20833;-73
2021/12/14 05:00:19;;;;;;;;;;;7.80;99.90;;;;;;5070741;28;20055;-73
2021/12/14 05:02:46;;;;;;;52.78;33.47;;;7.80;99.90;;;;;;5070523;28;19920;-73
2021/12/14 05:05:20;;;;;;;53.63;34.45;;;7.40;99.90;;;;;;5070237;28;20541;-73
2021/12/14 05:11:05;;;;;;;57.10;35.40;;;7.70;99.90;;;;;;5048287;28;20455;-73
2021/12/14 05:13:36;;;;;;;55.20;34.90;;;7.60;99.90;;;;;;5031972;28;20053;-73
2021/12/14 05:16:03;;;;;;;51.35;34.22;;;7.60;99.90;;;;;;5032217;28;20049;-73
2021/12/14 05:18:29;;;;;;;54.42;35.17;;;7.60;99.90;;;;;;5032423;28;20036;-73
2021/12/14 05:20:55;;;;;;;55.65;35.65;;;7.40;99.90;;;;;;5031932;28;20565;-73
2021/12/14 05:23:33;;;;;;;56.92;36.03;;;7.60;99.90;;;;;;5028667;28;20052;-73
2021/12/14 05:26:02;;;;;;;55.42;35.63;;;7.60;99.90;;;;;;5052804;28;20662;-73
2021/12/14 05:28:28;;;;;;;56.78;36.78;;;7.80;99.90;;;;;;5051943;28;20048;-73
2021/12/14 05:30:58;;;;;;;57.63;37.28;;;8.10;99.90;;;;;;5031462;28;20048;-73
2021/12/14 05:33:31;;;;;;;55.55;36.78;;;7.60;99.90;;;;;;5030330;28;20574;-73
2021/12/14 05:36:01;;;;;;;61.22;36.85;;;7.80;99.90;;;;;;5030732;28;20083;-73
2021/12/14 05:44:05;;;;;;;57.17;37.60;;;8.00;99.90;;;;;;5030873;28;20057;-73
2021/12/14 05:46:31;;;;;;;61.30;38.78;;;7.70;99.90;;;;;;5058466;28;20059;-73
2021/12/14 05:49:05;;;;;;;58.72;37.67;;;7.60;99.90;;;;;;5068587;28;20052;-73
2021/12/14 05:51:34;;;;;;;60.00;36.47;;;7.70;99.90;;;;;;5070661;28;20488;-73
2021/12/14 05:54:00;;;;;;;60.90;37.92;;;8.30;99.90;;;;;;5068888;28;20060;-73
2021/12/14 05:56:29;;;;;;;60.75;38.28;;;7.60;99.90;;;;;;5068936;28;20510;-73
2021/12/14 05:58:57;;;;;;;60.67;37.88;;;7.90;99.90;;;;;;5069178;28;20045;-73
2021/12/14 06:01:28;;;;;;;63.60;38.63;;;7.90;99.90;;;;;;5052471;28;20173;-73
2021/12/14 06:04:05;;;;;;;67.10;39.65;;;7.50;99.90;;;;;;5069374;28;20055;-73
2021/12/14 06:06:41;;;;;;;60.17;38.67;;;7.40;99.90;;;;;;5069124;28;20052;-72
2021/12/14 06:09:31;;;;;;;62.85;39.88;;;7.60;99.90;;;;;;5070496;28;20040;-73
2021/12/14 06:12:11;;;;;;;63.38;39.80;;;7.70;99.90;;;;;;5064305;28;20131;-73
2021/12/14 06:14:43;;;;;;;63.47;40.15;;;7.60;99.90;;;;;;5069671;28;20085;-73
2021/12/14 06:17:11;;;;;;;70.22;41.85;;;7.50;99.90;;;;;;5068125;28;20477;-73
2021/12/14 06:19:42;;;;;;;72.53;43.72;;;7.60;99.90;;;;;;5051576;28;20123;-73
2021/12/14 06:22:13;;;;;;;77.82;44.28;;;7.80;99.90;;;;;;5068431;28;20133;-72
2021/12/14 06:24:42;;;;;;;80.90;44.97;;;7.70;99.90;;;;;;5069408;28;20049;-72
2021/12/14 06:27:14;;;;;;;79.80;44.35;;;7.90;99.90;;;;;;5072907;28;20078;-73
2021/12/14 06:29:49;;;;;;;83.28;46.03;;;7.80;99.90;;;;;;5056409;28;20083;-73
2021/12/14 06:32:22;;;;;;;86.90;46.08;;;7.90;99.90;;;;;;5073523;28;20059;-72
2021/12/14 06:34:53;;;;;;;86.38;46.28;;;7.70;99.90;;;;;;5073372;28;20821;-73
2021/12/14 06:37:28;;;;;;;76.35;44.60;;;7.80;99.90;;;;;;5073328;28;20127;-73
2021/12/14 06:40:20;;;;;;;86.70;47.65;;;7.70;99.90;;;;;;5073298;28;20053;-73
2021/12/14 06:42:51;;;;;;;88.10;48.80;;;7.50;99.90;;;;;;5073261;28;20048;-73
2021/12/14 06:45:48;;;;;;;91.38;48.13;;;7.60;99.90;;;;;;5074344;28;20049;-73
2021/12/14 06:48:20;;;;;;;97.80;51.13;;;8.20;99.90;;;;;;5074223;28;20071;-73
2021/12/14 06:50:51;;;;;;;107.07;51.25;;;8.40;99.90;;;;;;5073144;28;20044;-71
2021/12/14 06:53:20;;;;;;;108.97;52.85;;;7.60;99.90;;;;;;5072745;28;20044;-71
2021/12/14 06:55:50;;;;;;;109.20;53.03;;;7.80;99.90;;;;;;5073055;28;20113;-71
2021/12/14 06:58:19;;;;;;;110.38;54.88;;;7.90;99.90;;;;;;5056129;28;20055;-71
2021/12/14 07:01:03;;;;;;;106.55;53.33;;;7.60;99.90;;;;;;5072567;28;20067;-71
2021/12/14 07:04:03;;;;;;;112.90;53.25;;;7.80;99.90;;;;;;5072589;28;20062;-71
2021/12/14 07:06:35;;;;;;;110.72;54.67;;;7.50;99.90;;;;;;5065294;28;20052;-71
2021/12/14 07:09:21;;;;;;;114.80;55.53;;;7.80;99.90;;;;;;5072481;28;20052;-71
2021/12/14 07:12:01;;;;;;;113.18;54.55;;;7.60;99.90;;;;;;5072431;28;20105;-71
2021/12/14 07:14:27;;;;;;;109.00;54.45;;;7.90;99.90;;;;;;5073385;28;20458;-71
2021/12/14 07:16:55;;;;;;;110.43;54.25;;;7.60;99.90;;;;;;5072146;28;20044;-71
2021/12/14 07:19:52;;;;;;;114.60;54.83;;;7.70;99.90;;;;;;5073723;28;20087;-71
2021/12/14 07:22:47;;;;;;;115.68;55.30;;;8.20;99.90;;;;;;5071495;28;20056;-71
2021/12/14 07:25:19;;;;;;;124.18;57.53;;;7.80;99.90;;;;;;5072669;28;20090;-71
2021/12/14 07:27:51;;;;;;;126.15;57.53;;;7.80;99.90;;;;;;5072487;28;20048;-71
2021/12/14 07:30:53;;;;;;;121.05;56.83;;;7.80;99.90;;;;;;5073421;28;20040;-71
2021/12/14 07:33:25;;;;;;;123.38;57.03;;;7.70;99.90;;;;;;5050897;28;20186;-71
2021/12/14 07:35:59;;;;;;;124.45;56.60;;;7.60;99.90;;;;;;5072281;28;20393;-71
2021/12/14 07:38:51;;;;;;;121.88;57.65;;;7.80;99.90;;;;;;5071991;28;20037;-71
2021/12/14 07:41:26;;;;;;;122.38;58.17;;;7.80;99.90;;;;;;5071785;28;20488;-71
2021/12/14 07:44:01;;;;;;;127.90;57.70;;;7.50;99.90;;;;;;5071914;28;20483;-71
2021/12/14 07:46:29;;;;;;;121.90;57.00;;;8.00;99.90;;;;;;5072018;28;20048;-71
2021/12/14 07:49:24;;;;;;;129.05;57.38;;;7.60;99.90;;;;;;5071313;28;20099;-71
2021/12/14 07:51:58;;;;;;;124.30;57.65;;;7.80;99.90;;;;;;5068990;28;20570;-71
2021/12/14 07:54:30;;;;;;;118.85;55.90;;;7.90;99.90;;;;;;5071606;28;20127;-71
2021/12/14 07:57:13;;;;;;;123.03;56.95;;;8.00;99.90;;;;;;5055279;28;20040;-71
2021/12/14 07:59:48;;;;;;;113.80;55.55;;;7.70;99.90;;;;;;5071591;28;20044;-71
2021/12/14 08:02:29;;;;;;;117.80;57.80;;;7.60;99.90;;;;;;5071806;28;20048;-73
2021/12/14 08:05:06;;;;;;;116.47;55.63;;;7.50;99.90;;;;;;5054979;28;20069;-73
2021/12/14 08:07:38;;;;;;;109.35;55.17;;;8.10;99.90;;;;;;5071287;28;20040;-73
2021/12/14 08:10:18;;;;;;;114.70;55.65;;;7.80;99.90;;;;;;5071261;28;20518;-74
2021/12/14 08:13:11;;;;;;;111.05;55.88;;;8.00;99.90;;;;;;5071245;28;20052;-73
2021/12/14 08:15:42;;;;;;;110.57;55.55;;;8.20;99.90;;;;;;5071590;28;20075;-73
2021/12/14 08:18:16;;;;;;;116.70;57.03;;;8.20;99.90;;;;;;5071726;28;20040;-73
2021/12/14 08:20:48;;;;;;;109.72;55.53;;;7.70;99.90;;;;;;5072556;28;20066;-71
2021/12/14 08:23:23;;;;;;;112.03;56.70;;;7.90;99.90;;;;;;5071473;28;20060;-71
2021/12/14 08:25:50;;;;;;;111.90;55.25;;;7.80;99.90;;;;;;5071154;28;20083;-71
2021/12/14 08:28:21;;;;;;;123.32;57.22;;;7.80;99.90;;;;;;5071178;28;20080;-71
2021/12/14 08:30:57;;;;;;;116.22;57.15;;;8.40;99.90;;;;;;5070954;28;20044;-72
2021/12/14 08:33:27;;;;;;;118.13;58.63;;;8.40;99.90;;;;;;5070562;28;20056;-71
2021/12/14 08:35:57;;;;;;;123.15;59.15;;;8.00;99.90;;;;;;5070920;28;20080;-71
2021/12/14 08:38:24;;;;;;;130.70;59.38;;;8.00;99.90;;;;;;5072249;28;20052;-71
2021/12/14 08:40:57;;;;;;;123.32;59.00;;;7.80;99.90;;;;;;5071110;28;20523;-71
2021/12/14 08:43:34;;;;;;;131.70;61.13;;;7.80;99.90;;;;;;5070873;28;20086;-71
2021/12/14 08:46:09;;;;;;;140.48;61.05;;;8.00;99.90;;;;;;5070831;28;20049;-70
2021/12/14 08:48:43;;;;;;;140.32;60.92;;;8.00;99.90;;;;;;5071135;28;20143;-70
2021/12/14 08:51:15;;;;;;;143.50;60.97;;;8.00;99.90;;;;;;5069346;28;20048;-70
2021/12/14 08:54:10;;;;;;;151.15;62.95;;;7.90;99.90;;;;;;5070097;28;20053;-70
2021/12/14 08:56:43;;;;;;;149.32;61.75;;;7.90;99.90;;;;;;5069867;28;20048;-73
2021/12/14 08:59:09;;;;;;;141.50;62.22;;;7.70;99.90;;;;;;5069762;28;20504;-73
2021/12/14 09:01:38;;;;;;;150.40;63.58;;;7.80;99.90;;;;;;5070266;28;20046;-73
2021/12/14 09:04:15;;;;;;;145.40;62.38;;;8.20;99.90;;;;;;5053619;28;20052;-73
2021/12/14 09:06:44;;;;;;;139.95;61.20;;;7.80;99.90;;;;;;5070238;28;20119;-73
2021/12/14 09:09:14;;;;;;;139.52;62.05;;;7.70;99.90;;;;;;5070398;28;20045;-73
2021/12/14 09:11:44;;;;;;;139.95;60.17;;;8.00;99.90;;;;;;5069151;28;20060;-73
2021/12/14 09:14:15;;;;;;;136.48;62.65;;;8.20;99.90;;;;;;5069958;28;20044;-73
2021/12/14 09:16:47;;;;;;;139.45;60.20;;;8.40;99.90;;;;;;5069726;28;20075;-73
2021/12/14 09:19:18;;;;;;;134.63;61.17;;;8.20;99.90;;;;;;5069836;28;20048;-73
2021/12/14 09:21:48;;;;;;;129.68;60.85;;;7.90;99.90;;;;;;5071140;28;20048;-73
2021/12/14 09:24:18;;;;;;;124.30;60.00;;;8.20;99.90;;;;;;5071545;28;20052;-73
2021/12/14 09:26:48;;;;;;;122.43;57.78;;;8.20;99.90;;;;;;5071015;28;20079;-73
2021/12/14 09:29:19;;;;;;;113.03;56.97;;;8.20;99.90;;;;;;5069826;28;20110;-73
2021/12/14 09:31:48;;;;;;;118.20;56.10;;;8.40;99.90;;;;;;5070821;28;20114;-73
2021/12/14 09:34:17;;;;;;;124.00;60.50;;;8.30;99.90;;;;;;5070975;28;20133;-71
2021/12/14 09:36:44;;;;;;;118.78;57.95;;;8.50;99.90;;;;;;5069913;28;20036;-73
2021/12/14 09:39:14;;;;;;;106.18;55.72;;;8.50;99.90;;;;;;5071172;28;20095;-74
2021/12/14 09:41:43;;;;;;;102.45;53.28;;;8.20;99.90;;;;;;5069575;28;20037;-73
2021/12/14 09:44:12;;;;;;;109.28;55.58;;;8.10;99.90;;;;;;5070979;28;20098;-73
2021/12/14 09:46:40;;;;;;;103.22;54.33;;;8.20;99.90;;;;;;5069292;28;20384;-73
2021/12/14 09:49:09;;;;;;;102.70;54.42;;;8.30;99.90;;;;;;5070805;28;20060;-73
2021/12/14 09:51:51;;;;;;;99.85;53.10;;;8.30;99.90;;;;;;5069538;28;20496;-73
2021/12/14 09:54:22;;;;;;;101.25;53.15;;;8.30;99.90;;;;;;5070778;28;20049;-74
2021/12/14 09:56:53;;;;;;;91.68;51.80;;;8.30;99.90;;;;;;5069291;28;20044;-73
2021/12/14 09:59:20;;;;;;;100.28;53.63;;;8.40;99.90;;;;;;5069962;28;20048;-74
2021/12/14 10:01:53;;;;;;;90.32;50.97;;;8.50;99.90;;;;;;5070830;28;20043;-73
2021/12/14 10:04:32;;;;;;;99.50;52.15;;;8.30;99.90;;;;;;5069994;28;20084;-73
2021/12/14 10:07:03;;;;;;;96.28;52.65;;;8.00;99.90;;;;;;5070116;28;20128;-73
2021/12/14 10:09:31;;;;;;;91.93;52.58;;;8.40;99.90;;;;;;5069496;28;20515;-73
2021/12/14 10:12:49;;;;;;;90.68;51.58;;;8.40;99.90;;;;;;5070911;28;20189;-73
2021/12/14 10:15:17;;;;;;;91.47;51.03;;;8.30;99.90;;;;;;5069572;28;20056;-73
2021/12/14 10:17:44;;;;;;;86.28;49.67;;;8.50;99.90;;;;;;5070975;28;20055;-73
2021/12/14 10:20:15;;;;;;;86.85;48.97;;;8.50;99.90;;;;;;5070700;28;20836;-73
2021/12/14 10:22:42;;;;;;;89.43;51.53;;;8.40;99.90;;;;;;5069220;28;20040;-73
2021/12/14 10:25:12;;;;;;;93.20;50.08;;;8.90;99.90;;;;;;5069540;28;20074;-73
2021/12/14 10:27:39;;;;;;;84.88;49.05;;;8.70;99.90;;;;;;5069535;28;20049;-73
2021/12/14 10:30:12;;;;;;;87.47;50.45;;;8.40;99.90;;;;;;5069426;28;20040;-74
2021/12/14 10:32:39;;;;;;;93.25;50.92;;;8.50;99.90;;;;;;5070277;28;20147;-73
2021/12/14 10:35:12;;;;;;;89.07;50.03;;;8.80;99.90;;;;;;5070236;28;20528;-73
2021/12/14 10:37:54;;;;;;;85.15;48.78;;;5.60;99.90;;;;;;5068974;28;20048;-73
2021/12/14 10:43:31;;;;;;;87.47;49.53;;;8.60;99.90;;;;;;5031171;28;20059;-74
2021/12/14 10:46:08;;;;;;;92.47;49.65;;;8.50;99.90;;;;;;5031346;28;20114;-73
2021/12/14 10:48:39;;;;;;;87.53;49.70;;;9.10;99.90;;;;;;5031111;28;20096;-71
2021/12/14 10:51:10;;;;;;;99.20;51.60;;;8.50;99.90;;;;;;5031244;28;20534;-71
2021/12/14 10:53:41;;;;;;;87.80;48.65;;;8.60;99.90;;;;;;5047600;28;20154;-71
2021/12/14 10:56:13;;;;;;;80.85;48.50;;;8.60;99.90;;;;;;5047675;28;20075;-71
2021/12/14 10:58:43;;;;;;;84.22;48.17;;;8.60;99.90;;;;;;5031301;28;20052;-70
2021/12/14 11:01:15;;;;;;;84.13;47.50;;;8.70;99.90;;;;;;5014349;28;20041;-71
2021/12/14 11:03:47;;;;;;;80.50;45.97;;;8.70;99.90;;;;;;5030609;28;20049;-71
2021/12/14 11:06:16;;;;;;;85.90;47.40;;;8.40;99.90;;;;;;5030719;28;20057;-70
2021/12/14 11:11:58;;;;;;;84.15;46.50;;;8.50;99.90;;;;;;5032994;28;20457;-71
2021/12/14 11:14:30;;;;;;;85.75;47.40;;;8.70;99.90;;;;;;5051162;28;20059;-71
2021/12/14 11:19:58;;;;;;;85.38;47.67;;;8.70;99.90;;;;;;5072550;28;20049;-70
2021/12/14 11:22:29;;;;;;;85.90;47.20;;;8.70;99.90;;;;;;5072011;28;20083;-71
2021/12/14 11:25:09;;;;;;;95.00;50.25;;;8.70;99.90;;;;;;5071993;28;20052;-71
2021/12/14 11:27:41;;;;;;;94.28;49.63;;;9.10;99.90;;;;;;5073326;28;20463;-71
2021/12/14 11:30:21;;;;;;;95.25;50.17;;;8.80;99.90;;;;;;5072130;28;20041;-71
2021/12/14 11:33:08;;;;;;;96.05;51.58;;;9.00;99.90;;;;;;5055719;28;20392;-71
2021/12/14 11:35:40;;;;;;;104.30;53.08;;;9.70;99.90;;;;;;5072426;28;20064;-71
2021/12/14 11:38:22;;;;;;;106.40;52.20;;;8.80;99.90;;;;;;5072121;28;20048;-71
2021/12/14 11:40:48;;;;;;;107.85;53.35;;;9.30;99.90;;;;;;5071984;28;20056;-71
2021/12/14 11:43:19;;;;;;;116.65;54.65;;;8.70;99.90;;;;;;5073657;28;20117;-73
2021/12/14 11:45:47;;;;;;;120.85;55.85;;;8.80;99.90;;;;;;5072124;28;20068;-73
2021/12/14 11:48:15;;;;;;;131.55;57.38;;;8.70;99.90;;;;;;5071711;28;20139;-74
2021/12/14 11:50:46;;;;;;;133.85;58.50;;;8.60;99.90;;;;;;5073211;28;20441;-73
2021/12/14 11:53:17;;;;;;;130.90;57.85;;;9.00;99.90;;;;;;5072146;28;20054;-73
2021/12/14 11:55:50;;;;;;;135.77;58.05;;;8.70;99.90;;;;;;5073783;28;20478;-73
2021/12/14 11:58:31;;;;;;;138.00;58.85;;;8.40;99.90;;;;;;5073249;28;20051;-74
2021/12/14 12:01:12;;;;;;;148.18;59.72;;;8.70;99.90;;;;;;5071847;28;20036;-74
2021/12/14 12:03:57;;;;;;;140.07;58.45;;;9.10;99.90;;;;;;5071653;28;20078;-73
2021/12/14 12:09:29;;;;;;;;;;;8.80;99.90;;;;;;5071949;28;20052;-73
2021/12/14 12:12:05;;;;;;;133.77;56.33;;;8.70;99.90;;;;;;5071485;28;19920;-73
2021/12/14 12:14:42;;;;;;;131.18;56.95;;;8.90;99.90;;;;;;5071414;28;20052;-73
2021/12/14 12:17:22;;;;;;;137.13;57.83;;;8.80;99.90;;;;;;5072738;28;20072;-73
2021/12/14 12:20:02;;;;;;;130.30;56.33;;;8.60;99.90;;;;;;5071476;28;20059;-73
2021/12/14 12:22:54;;;;;;;134.18;56.95;;;8.80;99.90;;;;;;5071313;28;20108;-73
2021/12/14 12:25:48;;;;;;;127.80;56.30;;;8.70;99.90;;;;;;5072787;28;20075;-73
2021/12/14 12:28:23;;;;;;;125.60;54.90;;;8.80;99.90;;;;;;5065446;28;20249;-73
2021/12/14 12:30:53;;;;;;;130.77;56.20;;;8.80;99.90;;;;;;5070855;28;20085;-73
2021/12/14 12:33:19;;;;;;;129.38;53.45;;;8.40;99.90;;;;;;5071001;28;20407;-74
2021/12/14 12:36:23;;;;;;;122.15;52.17;;;8.60;99.90;;;;;;5071031;28;20041;-73
2021/12/14 12:39:31;;;;;;;119.72;50.78;;;9.40;99.90;;;;;;5071913;28;20076;-73
2021/12/14 12:42:01;;;;;;;116.93;50.75;;;8.60;99.90;;;;;;5046146;28;20063;-73
2021/12/14 12:44:30;;;;;;;114.88;51.70;;;9.60;99.90;;;;;;5070890;28;20048;-73
2021/12/14 12:46:59;;;;;;;124.20;51.72;;;8.90;99.90;;;;;;5071971;28;20173;-73
2021/12/14 12:49:40;;;;;;;116.00;50.10;;;9.20;99.90;;;;;;5070250;28;20084;-73
2021/12/14 12:52:26;;;;;;;115.43;49.53;;;9.30;99.90;;;;;;5070499;28;20052;-73
2021/12/14 12:54:57;;;;;;;105.90;47.55;;;8.80;99.90;;;;;;5070387;28;20048;-73
2021/12/14 12:57:37;;;;;;;105.82;46.60;;;8.60;99.90;;;;;;5071791;28;20048;-73
2021/12/14 13:00:12;;;;;;;109.05;47.53;;;8.80;99.90;;;;;;5071250;28;20822;-73
2021/12/14 13:02:49;;;;;;;117.13;48.90;;;8.80;99.90;;;;;;5070296;28;20048;-73
2021/12/14 13:05:40;;;;;;;118.57;49.25;;;8.50;99.90;;;;;;5070057;28;20127;-73
2021/12/14 13:08:26;;;;;;;122.75;47.88;;;8.80;99.90;;;;;;5071216;28;20557;-74
2021/12/14 13:11:01;;;;;;;127.70;48.90;;;8.70;99.90;;;;;;5070177;28;20056;-73
2021/12/14 13:13:28;;;;;;;112.90;47.22;;;8.80;99.90;;;;;;5070214;28;20051;-73
2021/12/14 13:16:01;;;;;;;128.23;48.28;;;8.40;99.90;;;;;;5070097;28;20500;-74
2021/12/14 13:18:34;;;;;;;122.32;46.67;;;9.40;99.90;;;;;;5071359;28;20055;-73
2021/12/14 13:21:24;;;;;;;115.40;46.67;;;8.80;99.90;;;;;;5070119;28;20071;-73
2021/12/14 13:24:10;;;;;;;113.47;45.03;;;8.70;99.90;;;;;;5071396;28;20045;-73
2021/12/14 13:27:07;;;;;;;104.60;42.75;;;9.00;99.90;;;;;;5069668;28;20150;-73
2021/12/14 13:29:44;;;;;;;;;;;8.90;99.90;;;;;;5067229;28;20520;-73
2021/12/14 13:32:21;;;;;;;96.75;42.63;;;8.80;99.90;;;;;;5071170;28;20367;-74
2021/12/14 13:34:50;;;;;;;91.35;40.33;;;8.40;99.90;;;;;;5069574;28;20057;-73
2021/12/14 13:37:42;;;;;;;99.97;42.65;;;8.80;99.90;;;;;;5053236;28;20480;-74
2021/12/14 13:40:15;;;;;;;91.53;39.90;;;8.70;99.90;;;;;;5065693;28;20045;-73
2021/12/14 13:43:11;;;;;;;93.28;41.28;;;8.90;99.90;;;;;;5070388;28;20044;-73
2021/12/14 13:45:53;;;;;;;94.53;41.70;;;9.00;99.90;;;;;;5071433;28;20090;-74
2021/12/14 13:48:27;;;;;;;95.93;40.92;;;8.60;99.90;;;;;;5069614;28;20061;-74
2021/12/14 13:51:03;;;;;;;91.10;41.00;;;8.60;99.90;;;;;;5071136;28;20114;-74
2021/12/14 13:53:30;;;;;;;97.78;41.75;;;8.70;99.90;;;;;;5068995;28;20080;-74
2021/12/14 13:56:05;;;;;;;96.80;40.78;;;8.70;99.90;;;;;;5070662;28;20053;-74